Time;durP1;ratioP1;P1;durP2;ratioP2;P2;SDS_P1;SDS_P2;PMS_P1;PMS_P2;Temp;Humidity;BMP_temperature;BMP_pressure;BME280_temperature;BME280_humidity;BME280_pressure;Samples;Min_cycle;Max_cycle;Signal;HPM_P1;HPM_P2
2022/05/20 00:00:39;;;;;;;3.63;1.73;;;;;;;;;;5029083;28;20033;-76
2022/05/20 00:03:05;;;;;;;2.00;1.63;;;;;;;;;;4996172;28;20455;-76
2022/05/20 00:05:31;;;;;;;1.70;1.45;;;;;;;;;;5012461;28;20471;-76
2022/05/20 00:07:56;;;;;;;2.35;1.75;;;;;;;;;;5012400;28;20041;-76
2022/05/20 00:10:22;;;;;;;3.25;1.70;;;;;;;;;;5015707;28;20042;-76
2022/05/20 00:12:48;;;;;;;2.50;1.67;;;;;;;;;;5034150;28;20063;-76
2022/05/20 00:15:16;;;;;;;2.53;1.70;;;;;;;;;;5016406;28;20029;-76
2022/05/20 00:17:43;;;;;;;3.15;1.95;;;;;;;;;;5033979;28;20017;-76
2022/05/20 00:20:09;;;;;;;1.95;1.80;;;;;;;;;;5016248;28;20109;-76
2022/05/20 00:22:34;;;;;;;3.72;1.58;;;;;;;;;;4999934;28;20029;-76
2022/05/20 00:27:43;;;;;;;1.95;1.40;;;;;;;;;;5032766;28;20120;-76
2022/05/20 00:30:09;;;;;;;3.58;1.50;;;;;;;;;;5032023;28;20112;-75
2022/05/20 00:32:35;;;;;;;3.00;1.90;;;;;;;;;;4999511;28;20428;-75
2022/05/20 00:35:00;;;;;;;2.38;2.08;;;;;;;;;;5015990;28;20053;-75
2022/05/20 00:37:26;;;;;;;2.75;1.52;;;;;;;;;;5011619;28;20077;-76
2022/05/20 00:39:52;;;;;;;2.42;1.65;;;;;;;;;;5015643;28;20064;-76
2022/05/20 00:42:18;;;;;;;2.83;1.38;;;;;;;;;;5033841;28;20429;-75
2022/05/20 00:44:44;;;;;;;2.10;1.73;;;;;;;;;;5033639;28;20037;-76
2022/05/20 00:47:11;;;;;;;1.67;1.40;;;;;;;;;;4999189;28;20040;-75
2022/05/20 00:49:37;;;;;;;2.97;1.58;;;;;;;;;;4999294;28;20017;-75
2022/05/20 00:52:04;;;;;;;2.55;1.50;;;;;;;;;;5033425;28;20078;-76
2022/05/20 00:54:33;;;;;;;2.05;1.25;;;;;;;;;;5015562;28;20397;-75
2022/05/20 00:57:05;;;;;;;2.75;1.40;;;;;;;;;;5015460;28;20028;-75
2022/05/20 00:59:34;;;;;;;2.88;1.67;;;;;;;;;;5015373;28;20170;-76
2022/05/20 01:02:08;;;;;;;1.42;1.23;;;;;;;;;;5015558;28;20017;-76
2022/05/20 01:04:35;;;;;;;2.83;1.83;;;;;;;;;;5015581;28;20376;-76
2022/05/20 01:07:00;;;;;;;2.88;1.33;;;;;;;;;;5015500;28;20059;-76
2022/05/20 01:09:26;;;;;;;1.75;1.25;;;;;;;;;;4999554;28;20494;-76
2022/05/20 01:11:52;;;;;;;3.70;1.27;;;;;;;;;;4999050;28;20044;-76
2022/05/20 01:14:23;;;;;;;2.38;1.60;;;;;;;;;;4999444;28;20067;-76
2022/05/20 01:16:48;;;;;;;2.00;1.40;;;;;;;;;;4999157;28;20112;-76
2022/05/20 01:19:19;;;;;;;3.95;1.95;;;;;;;;;;5032985;28;20084;-76
2022/05/20 01:21:44;;;;;;;2.00;1.50;;;;;;;;;;5014401;28;20022;-76
2022/05/20 01:24:09;;;;;;;1.73;1.30;;;;;;;;;;4982459;28;20106;-76
2022/05/20 01:26:35;;;;;;;2.20;1.30;;;;;;;;;;5032877;28;20436;-76
2022/05/20 01:29:00;;;;;;;2.60;1.60;;;;;;;;;;5015129;28;20113;-76
2022/05/20 01:31:25;;;;;;;2.80;1.60;;;;;;;;;;5033165;28;20029;-76
2022/05/20 01:33:51;;;;;;;3.40;1.70;;;;;;;;;;5032767;28;20033;-76
2022/05/20 01:36:22;;;;;;;2.28;1.30;;;;;;;;;;5014684;28;20032;-76
2022/05/20 01:38:49;;;;;;;1.80;1.30;;;;;;;;;;5048202;28;20119;-76
2022/05/20 01:41:17;;;;;;;2.08;1.42;;;;;;;;;;5051118;28;20029;-76
2022/05/20 01:44:08;;;;;;;1.40;1.30;;;;;;;;;;5050983;28;20393;-76
2022/05/20 01:47:00;;;;;;;2.60;1.40;;;;;;;;;;5052007;28;20021;-76
2022/05/20 01:49:46;;;;;;;1.38;1.25;;;;;;;;;;5052020;28;20028;-76
2022/05/20 01:52:23;;;;;;;3.15;2.00;;;;;;;;;;5050483;28;20453;-76
2022/05/20 01:55:13;;;;;;;3.17;1.73;;;;;;;;;;5033940;28;20027;-76
2022/05/20 01:58:01;;;;;;;3.17;1.58;;;;;;;;;;5050715;28;20094;-76
2022/05/20 02:00:28;;;;;;;2.55;1.50;;;;;;;;;;5033920;28;20108;-76
2022/05/20 02:03:09;;;;;;;3.13;2.00;;;;;;;;;;5034180;28;20123;-76
2022/05/20 02:05:39;;;;;;;3.08;1.48;;;;;;;;;;5050492;28;20033;-76
2022/05/20 02:08:37;;;;;;;1.45;1.35;;;;;;;;;;5033620;28;20332;-76
2022/05/20 02:11:07;;;;;;;3.00;1.50;;;;;;;;;;5047718;28;20036;-76
2022/05/20 02:13:34;;;;;;;1.70;1.58;;;;;;;;;;5050244;28;20082;-76
2022/05/20 02:16:04;;;;;;;2.35;1.40;;;;;;;;;;5050154;28;20035;-76
2022/05/20 02:18:35;;;;;;;1.73;1.20;;;;;;;;;;5033924;28;20080;-76
2022/05/20 02:21:06;;;;;;;1.50;1.30;;;;;;;;;;5033702;28;20071;-76
2022/05/20 02:23:35;;;;;;;1.15;1.05;;;;;;;;;;5050274;28;20406;-76
2022/05/20 02:26:08;;;;;;;1.25;1.13;;;;;;;;;;5050053;28;20020;-76
2022/05/20 02:28:36;;;;;;;1.63;1.30;;;;;;;;;;5050058;28;20021;-76
2022/05/20 02:31:04;;;;;;;1.67;1.35;;;;;;;;;;5033661;28;20025;-76
2022/05/20 02:33:30;;;;;;;1.85;1.20;;;;;;;;;;5018202;28;20371;-76
2022/05/20 02:36:17;;;;;;;3.25;1.20;;;;;;;;;;5033167;28;20116;-76
2022/05/20 02:38:43;;;;;;;1.33;1.20;;;;;;;;;;5033147;28;20099;-76
2022/05/20 02:41:08;;;;;;;1.13;1.05;;;;;;;;;;5033328;28;20032;-76
2022/05/20 02:43:34;;;;;;;1.40;1.30;;;;;;;;;;5032830;28;20021;-76
2022/05/20 02:46:00;;;;;;;1.90;1.35;;;;;;;;;;5049656;28;20069;-76
2022/05/20 02:48:25;;;;;;;1.42;1.30;;;;;;;;;;5051183;28;20040;-75
2022/05/20 02:50:50;;;;;;;3.83;1.40;;;;;;;;;;5033181;28;20039;-75
2022/05/20 02:53:16;;;;;;;1.77;1.52;;;;;;;;;;5051049;28;20425;-76
2022/05/20 02:55:41;;;;;;;1.38;1.27;;;;;;;;;;5049623;28;20021;-75
2022/05/20 02:58:07;;;;;;;1.63;1.17;;;;;;;;;;5050929;28;20039;-75
2022/05/20 03:06:00;;;;;;;;;;;;;;;;;;5050179;28;20063;-75
2022/05/20 03:08:25;;;;;;;1.73;1.33;;;;;;;;;;5050855;28;20423;-75
2022/05/20 03:10:51;;;;;;;1.48;1.30;;;;;;;;;;5032842;28;20277;-75
2022/05/20 03:13:17;;;;;;;2.03;1.50;;;;;;;;;;5050796;28;20420;-76
2022/05/20 03:15:43;;;;;;;2.65;1.48;;;;;;;;;;5050528;28;20552;-75
2022/05/20 03:18:10;;;;;;;1.75;1.30;;;;;;;;;;5049431;28;20028;-75
2022/05/20 03:20:37;;;;;;;3.20;1.60;;;;;;;;;;5049210;28;20081;-75
2022/05/20 03:23:02;;;;;;;2.13;1.33;;;;;;;;;;5049127;28;20020;-75
2022/05/20 03:25:28;;;;;;;2.63;1.40;;;;;;;;;;5050532;28;20039;-75
2022/05/20 03:27:53;;;;;;;1.75;1.60;;;;;;;;;;5032413;28;20139;-75
2022/05/20 03:30:19;;;;;;;2.45;1.70;;;;;;;;;;5049329;28;20100;-75
2022/05/20 03:32:44;;;;;;;2.10;1.67;;;;;;;;;;5050557;28;20131;-75
2022/05/20 03:35:11;;;;;;;1.67;1.50;;;;;;;;;;5050496;28;20033;-75
2022/05/20 03:37:36;;;;;;;1.65;1.40;;;;;;;;;;5031846;28;20045;-75
2022/05/20 03:40:03;;;;;;;1.55;1.40;;;;;;;;;;5050481;28;20148;-74
2022/05/20 03:42:28;;;;;;;2.50;1.40;;;;;;;;;;5048902;28;20479;-74
2022/05/20 03:44:53;;;;;;;2.17;1.65;;;;;;;;;;5051628;28;20141;-74
2022/05/20 03:47:19;;;;;;;1.88;1.40;;;;;;;;;;5054730;28;20040;-74
2022/05/20 03:49:46;;;;;;;1.58;1.48;;;;;;;;;;5036605;28;20116;-75
2022/05/20 03:52:12;;;;;;;1.88;1.40;;;;;;;;;;5053264;28;20047;-75
2022/05/20 03:54:37;;;;;;;4.22;1.75;;;;;;;;;;5053458;28;20077;-75
2022/05/20 03:57:04;;;;;;;2.72;1.60;;;;;;;;;;5054257;28;20508;-75
2022/05/20 03:59:33;;;;;;;3.83;1.50;;;;;;;;;;5052902;28;20051;-75
2022/05/20 04:01:58;;;;;;;1.55;1.45;;;;;;;;;;5052769;28;20029;-75
2022/05/20 04:04:37;;;;;;;2.20;1.80;;;;;;;;;;5052663;28;20082;-75
2022/05/20 04:07:06;;;;;;;2.13;1.60;;;;;;;;;;5054456;28;20044;-75
2022/05/20 04:09:32;;;;;;;3.28;1.65;;;;;;;;;;5052573;28;20028;-75
2022/05/20 04:11:59;;;;;;;1.60;1.50;;;;;;;;;;5052716;28;20043;-75
2022/05/20 04:14:28;;;;;;;2.78;1.50;;;;;;;;;;5036066;28;20036;-76
2022/05/20 04:16:57;;;;;;;14.55;1.60;;;;;;;;;;5036016;28;20032;-77
2022/05/20 04:19:28;;;;;;;5.78;2.40;;;;;;;;;;5053829;28;20025;-76
2022/05/20 04:21:57;;;;;;;3.22;2.25;;;;;;;;;;5052624;28;20060;-75
2022/05/20 04:24:22;;;;;;;3.63;2.20;;;;;;;;;;5035939;28;20139;-75
2022/05/20 04:26:48;;;;;;;4.05;1.90;;;;;;;;;;5052747;28;20538;-75
2022/05/20 04:29:13;;;;;;;4.45;2.10;;;;;;;;;;5052617;28;20025;-77
2022/05/20 04:31:43;;;;;;;4.13;1.85;;;;;;;;;;5036144;28;20214;-75
2022/05/20 04:34:09;;;;;;;2.97;1.60;;;;;;;;;;5053444;28;20024;-79
2022/05/20 04:36:34;;;;;;;2.63;1.70;;;;;;;;;;5053537;28;20033;-79
2022/05/20 04:38:59;;;;;;;4.32;1.67;;;;;;;;;;5036840;28;20098;-78
2022/05/20 04:46:57;;;;;;;;;;;;;;;;;;5039668;28;20091;-78
2022/05/20 04:49:24;;;;;;;2.30;2.10;;;;;;;;;;5054401;28;19913;-78
2022/05/20 04:51:50;;;;;;;2.13;1.92;;;;;;;;;;5053128;28;20036;-77
2022/05/20 04:57:00;;;;;;;2.20;1.67;;;;;;;;;;5054461;28;20067;-77
2022/05/20 04:59:25;;;;;;;2.63;1.70;;;;;;;;;;5036472;28;20093;-77
2022/05/20 05:01:51;;;;;;;2.95;1.80;;;;;;;;;;5052894;28;20085;-78
2022/05/20 05:04:17;;;;;;;4.78;1.50;;;;;;;;;;5052920;28;20033;-78
2022/05/20 05:06:43;;;;;;;3.63;1.80;;;;;;;;;;5036244;28;20120;-77
2022/05/20 05:09:09;;;;;;;3.45;1.77;;;;;;;;;;5052839;28;20168;-77
2022/05/20 05:11:36;;;;;;;2.45;1.70;;;;;;;;;;5036297;28;20353;-77
2022/05/20 05:14:02;;;;;;;1.75;1.50;;;;;;;;;;5036984;28;20056;-76
2022/05/20 05:16:28;;;;;;;2.53;1.60;;;;;;;;;;5053852;28;20432;-77
2022/05/20 05:18:53;;;;;;;2.20;1.55;;;;;;;;;;5020227;28;20409;-77
2022/05/20 05:21:19;;;;;;;1.63;1.52;;;;;;;;;;5055651;28;20087;-76
2022/05/20 05:23:44;;;;;;;1.90;1.70;;;;;;;;;;5053444;28;20034;-76
2022/05/20 05:26:10;;;;;;;5.18;1.60;;;;;;;;;;5053120;28;20029;-76
2022/05/20 05:28:35;;;;;;;1.70;1.45;;;;;;;;;;5053187;28;20476;-76
2022/05/20 05:31:01;;;;;;;3.72;1.80;;;;;;;;;;5053499;28;20021;-76
2022/05/20 05:33:27;;;;;;;1.52;1.42;;;;;;;;;;5052904;28;20067;-76
2022/05/20 05:35:52;;;;;;;1.48;1.38;;;;;;;;;;5052743;28;20032;-76
2022/05/20 05:38:18;;;;;;;1.50;1.40;;;;;;;;;;5052852;28;20049;-76
2022/05/20 05:40:43;;;;;;;1.50;1.40;;;;;;;;;;5054435;28;20432;-76
2022/05/20 05:43:09;;;;;;;1.95;1.55;;;;;;;;;;5052710;28;20037;-76
2022/05/20 05:45:35;;;;;;;1.60;1.50;;;;;;;;;;5053835;28;20024;-76
2022/05/20 05:48:07;;;;;;;1.73;1.63;;;;;;;;;;5054108;28;20417;-76
2022/05/20 05:50:34;;;;;;;4.13;1.50;;;;;;;;;;5052421;28;20036;-77
2022/05/20 05:53:12;;;;;;;3.00;1.90;;;;;;;;;;5052596;28;20372;-76
2022/05/20 05:55:38;;;;;;;1.55;1.45;;;;;;;;;;5052710;28;20031;-76
2022/05/20 05:58:03;;;;;;;1.63;1.52;;;;;;;;;;5036291;28;20033;-77
2022/05/20 06:00:29;;;;;;;1.73;1.50;;;;;;;;;;5052839;28;20579;-77
2022/05/20 06:02:54;;;;;;;1.70;1.60;;;;;;;;;;5052941;28;20024;-76
2022/05/20 06:05:20;;;;;;;4.15;1.60;;;;;;;;;;5051511;28;20091;-77
2022/05/20 06:07:46;;;;;;;2.15;1.80;;;;;;;;;;5034668;28;20033;-76
2022/05/20 06:10:12;;;;;;;3.55;1.45;;;;;;;;;;5035192;28;20117;-77
2022/05/20 06:12:37;;;;;;;3.05;1.80;;;;;;;;;;5018870;28;20033;-75
2022/05/20 06:15:08;;;;;;;2.05;1.38;;;;;;;;;;5034976;28;20480;-76
2022/05/20 06:17:34;;;;;;;4.00;1.60;;;;;;;;;;5051649;28;20053;-76
2022/05/20 06:19:59;;;;;;;2.25;1.63;;;;;;;;;;5035091;28;20059;-76
2022/05/20 06:22:26;;;;;;;2.67;1.70;;;;;;;;;;5053946;28;20029;-75
2022/05/20 06:24:51;;;;;;;2.03;1.50;;;;;;;;;;5052332;28;20033;-75
2022/05/20 06:27:16;;;;;;;4.28;1.70;;;;;;;;;;5051788;28;20032;-75
2022/05/20 06:29:42;;;;;;;2.15;1.48;;;;;;;;;;5051370;28;20161;-75
2022/05/20 06:32:07;;;;;;;2.35;1.40;;;;;;;;;;5051133;28;20040;-75
2022/05/20 06:39:49;;;;;;;1.77;1.63;;;;;;;;;;5052608;28;20044;-78
2022/05/20 06:40:08;;;;;;;2.88;1.70;;;;;;;;;;5057356;28;20035;-77
2022/05/20 06:42:34;;;;;;;2.58;1.75;;;;;;;;;;5072652;28;20103;-77
2022/05/20 06:44:59;;;;;;;3.53;2.25;;;;;;;;;;5072572;28;20174;-77
2022/05/20 06:47:24;;;;;;;4.05;1.85;;;;;;;;;;5054551;28;20391;-77
2022/05/20 06:49:50;;;;;;;6.97;2.10;;;;;;;;;;5054323;28;20028;-77
2022/05/20 06:52:15;;;;;;;16.15;5.10;;;;;;;;;;5037653;28;20038;-80
2022/05/20 06:54:40;;;;;;;16.60;4.78;;;;;;;;;;5054519;28;20032;-80
2022/05/20 06:57:06;;;;;;;6.13;2.38;;;;;;;;;;5037494;28;20028;-81
2022/05/20 06:59:32;;;;;;;13.68;3.00;;;;;;;;;;5055033;28;20052;-81
2022/05/20 07:02:00;;;;;;;7.93;2.75;;;;;;;;;;5071932;28;20058;-82
2022/05/20 07:04:29;;;;;;;12.68;2.72;;;;;;;;;;5053695;28;20029;-81
2022/05/20 07:06:56;;;;;;;8.55;2.55;;;;;;;;;;5037569;28;20497;-82
2022/05/20 07:09:21;;;;;;;13.05;3.42;;;;;;;;;;5054514;28;20043;-83
2022/05/20 07:11:47;;;;;;;4.72;2.42;;;;;;;;;;5054488;28;20475;-82
2022/05/20 07:14:13;;;;;;;9.15;2.67;;;;;;;;;;5053930;28;20044;-82
2022/05/20 07:16:38;;;;;;;27.88;3.97;;;;;;;;;;5054314;28;20096;-84
2022/05/20 07:19:05;;;;;;;8.48;3.10;;;;;;;;;;5037444;28;20024;-83
2022/05/20 07:21:30;;;;;;;5.28;3.00;;;;;;;;;;5072484;28;20033;-83
2022/05/20 07:23:56;;;;;;;4.65;2.90;;;;;;;;;;5072460;28;20099;-83
2022/05/20 07:26:21;;;;;;;6.70;2.60;;;;;;;;;;5037787;28;20494;-83
2022/05/20 07:28:47;;;;;;;5.38;2.80;;;;;;;;;;5054565;28;20033;-81
2022/05/20 07:31:12;;;;;;;6.63;2.58;;;;;;;;;;5037707;28;20089;-81
2022/05/20 07:33:38;;;;;;;4.60;2.80;;;;;;;;;;5053877;28;20419;-81
2022/05/20 07:36:06;;;;;;;12.00;2.60;;;;;;;;;;5037138;28;20085;-82
2022/05/20 07:38:31;;;;;;;5.82;2.47;;;;;;;;;;5071868;28;20099;-81
2022/05/20 07:40:57;;;;;;;12.30;2.95;;;;;;;;;;5053736;28;20040;-82
2022/05/20 07:43:24;;;;;;;4.60;2.70;;;;;;;;;;5037418;28;20035;-83
2022/05/20 07:45:50;;;;;;;5.70;2.47;;;;;;;;;;5053572;28;20025;-84
2022/05/20 07:48:16;;;;;;;4.00;2.47;;;;;;;;;;5053620;28;20479;-82
2022/05/20 07:50:45;;;;;;;11.70;2.88;;;;;;;;;;5071984;28;20119;-82
2022/05/20 07:53:21;;;;;;;3.67;2.33;;;;;;;;;;5071322;28;20087;-81
2022/05/20 07:56:06;;;;;;;4.43;2.25;;;;;;;;;;5037858;28;20059;-81
2022/05/20 07:58:35;;;;;;;5.20;2.33;;;;;;;;;;5053433;28;20025;-82
2022/05/20 08:01:02;;;;;;;7.85;2.75;;;;;;;;;;5036733;28;20119;-83
2022/05/20 08:06:15;;;;;;;9.57;2.08;;;;;;;;;;5056513;28;20116;-80
2022/05/20 08:08:41;;;;;;;4.90;2.47;;;;;;;;;;5071321;28;20386;-82
2022/05/20 08:11:07;;;;;;;5.95;2.17;;;;;;;;;;5053345;28;20029;-81
2022/05/20 08:13:32;;;;;;;2.65;2.00;;;;;;;;;;5053159;28;20029;-81
2022/05/20 08:15:58;;;;;;;11.75;2.33;;;;;;;;;;5053481;28;20036;-81
2022/05/20 08:18:23;;;;;;;5.70;2.05;;;;;;;;;;5053740;28;20024;-84
2022/05/20 08:20:49;;;;;;;10.05;2.42;;;;;;;;;;5053385;28;20371;-80
2022/05/20 08:23:14;;;;;;;4.40;2.10;;;;;;;;;;5071087;28;20035;-80
2022/05/20 08:25:39;;;;;;;4.50;1.90;;;;;;;;;;5054276;28;20032;-79
2022/05/20 08:28:05;;;;;;;6.05;1.70;;;;;;;;;;5070962;28;20051;-82
2022/05/20 08:30:31;;;;;;;5.57;1.65;;;;;;;;;;5039196;28;20128;-83
2022/05/20 08:32:56;;;;;;;3.45;1.80;;;;;;;;;;5057488;28;20043;-82
2022/05/20 08:35:23;;;;;;;4.05;2.20;;;;;;;;;;5074844;28;20090;-81
2022/05/20 08:37:49;;;;;;;4.82;2.00;;;;;;;;;;5057029;28;20052;-80
2022/05/20 08:40:29;;;;;;;10.07;3.15;;;;;;;;;;5040275;28;20031;-80
2022/05/20 08:42:56;;;;;;;19.70;5.32;;;;;;;;;;5057172;28;20032;-80
2022/05/20 08:45:25;;;;;;;14.55;4.70;;;;;;;;;;5040822;28;20024;-79
2022/05/20 08:47:52;;;;;;;20.27;6.03;;;;;;;;;;5056829;28;20577;-80
2022/05/20 08:50:37;;;;;;;20.50;5.72;;;;;;;;;;5040152;28;20039;-80
2022/05/20 08:53:08;;;;;;;15.80;5.18;;;;;;;;;;5074544;28;20025;-79
2022/05/20 08:55:33;;;;;;;17.13;4.57;;;;;;;;;;5056653;28;20020;-79
2022/05/20 08:58:01;;;;;;;18.70;4.43;;;;;;;;;;5039890;28;20348;-79
2022/05/20 09:00:27;;;;;;;14.80;4.82;;;;;;;;;;5056926;28;20028;-80
2022/05/20 09:02:53;;;;;;;12.60;3.95;;;;;;;;;;5056656;28;20029;-80
2022/05/20 09:05:20;;;;;;;13.65;3.75;;;;;;;;;;5023174;28;20383;-79
2022/05/20 09:08:06;;;;;;;12.00;3.63;;;;;;;;;;5075688;28;20039;-80
2022/05/20 09:10:45;;;;;;;9.55;3.38;;;;;;;;;;5056393;28;20040;-80
2022/05/20 09:16:17;;;;;;;11.00;3.13;;;;;;;;;;5059364;28;20043;-79
2022/05/20 09:18:46;;;;;;;13.50;2.78;;;;;;;;;;5056572;28;20130;-80
2022/05/20 09:21:35;;;;;;;13.68;3.45;;;;;;;;;;5056306;28;20111;-81
2022/05/20 09:24:06;;;;;;;8.70;2.80;;;;;;;;;;5039866;28;20024;-79
2022/05/20 09:26:39;;;;;;;7.95;2.65;;;;;;;;;;5056315;28;20356;-77
2022/05/20 09:29:10;;;;;;;8.98;3.33;;;;;;;;;;5055932;28;20028;-78
2022/05/20 09:31:44;;;;;;;16.75;2.70;;;;;;;;;;5074741;28;20398;-78
2022/05/20 09:34:13;;;;;;;10.48;2.20;;;;;;;;;;5039617;28;20471;-79
2022/05/20 09:36:46;;;;;;;7.93;2.30;;;;;;;;;;5074037;28;20043;-79
2022/05/20 09:39:14;;;;;;;;;;;;;;;;;;5039812;28;20045;-79
2022/05/20 09:41:45;;;;;;;5.60;1.92;;;;;;;;;;5055023;28;19948;-79
2022/05/20 09:44:12;;;;;;;7.50;2.08;;;;;;;;;;5055785;28;20127;-77
2022/05/20 09:46:49;;;;;;;5.40;2.17;;;;;;;;;;5073933;28;20039;-78
2022/05/20 09:49:19;;;;;;;4.00;2.05;;;;;;;;;;5039071;28;20118;-78
2022/05/20 09:51:55;;;;;;;6.43;2.13;;;;;;;;;;5038907;28;20475;-78
2022/05/20 09:54:26;;;;;;;9.63;2.72;;;;;;;;;;5057217;28;20029;-78
2022/05/20 09:57:05;;;;;;;11.52;2.70;;;;;;;;;;5057262;28;20024;-79
2022/05/20 09:59:44;;;;;;;6.13;1.98;;;;;;;;;;5040168;28;20107;-78
2022/05/20 10:02:20;;;;;;;4.97;2.20;;;;;;;;;;5039630;28;20065;-79
2022/05/20 10:04:55;;;;;;;2.83;1.85;;;;;;;;;;5055981;28;20027;-80
2022/05/20 10:07:34;;;;;;;2.33;1.65;;;;;;;;;;5057049;28;20462;-79
2022/05/20 10:10:06;;;;;;;6.40;2.30;;;;;;;;;;5055776;28;20032;-79
2022/05/20 10:12:34;;;;;;;3.85;1.70;;;;;;;;;;5040190;28;20028;-79
2022/05/20 10:15:12;;;;;;;3.92;1.73;;;;;;;;;;5041184;28;20538;-79
2022/05/20 10:17:49;;;;;;;7.07;2.15;;;;;;;;;;5056344;28;20031;-78
2022/05/20 10:20:36;;;;;;;4.93;1.65;;;;;;;;;;5075153;28;20032;-78
2022/05/20 10:23:09;;;;;;;3.78;1.58;;;;;;;;;;5074969;28;20038;-79
2022/05/20 10:25:41;;;;;;;3.33;1.80;;;;;;;;;;5058319;28;20028;-80
2022/05/20 10:28:12;;;;;;;6.30;1.90;;;;;;;;;;5057943;28;20024;-78
2022/05/20 10:33:33;;;;;;;3.13;1.88;;;;;;;;;;5059766;28;20104;-80
2022/05/20 10:36:14;;;;;;;4.88;1.95;;;;;;;;;;5056904;28;20059;-80
2022/05/20 10:38:57;;;;;;;3.25;1.58;;;;;;;;;;5075087;28;20108;-78
2022/05/20 10:41:33;;;;;;;2.63;1.55;;;;;;;;;;5055856;28;20024;-81
2022/05/20 10:50:24;;;;;;;5.30;1.50;;;;;;;;;;5072404;28;20387;-78
2022/05/20 10:52:52;;;;;;;11.82;1.90;;;;;;;;;;5038562;28;20387;-81
2022/05/20 10:55:24;;;;;;;5.47;1.50;;;;;;;;;;5054680;28;20459;-80
2022/05/20 10:58:12;;;;;;;3.75;1.60;;;;;;;;;;5072314;28;20086;-80
2022/05/20 11:00:47;;;;;;;6.25;1.50;;;;;;;;;;5072382;28;20024;-78
2022/05/20 11:03:13;;;;;;;3.40;1.50;;;;;;;;;;5054549;28;20359;-76
2022/05/20 11:05:57;;;;;;;4.47;1.50;;;;;;;;;;5071767;28;20033;-78
2022/05/20 11:08:31;;;;;;;4.72;1.70;;;;;;;;;;5071977;28;20471;-77
2022/05/20 11:11:22;;;;;;;4.07;1.70;;;;;;;;;;5072317;28;20047;-77
2022/05/20 11:14:19;;;;;;;5.55;2.67;;;;;;;;;;5037426;28;20090;-81
2022/05/20 11:16:58;;;;;;;7.93;1.80;;;;;;;;;;5071896;28;20029;-78
2022/05/20 11:19:24;;;;;;;4.50;1.60;;;;;;;;;;5053949;28;20423;-76
2022/05/20 11:22:08;;;;;;;6.43;2.07;;;;;;;;;;5071854;28;20035;-78
2022/05/20 11:24:51;;;;;;;;;;;;;;;;;;5072056;28;20246;-78
2022/05/20 11:27:38;;;;;;;5.50;1.80;;;;;;;;;;5071614;28;20358;-77
2022/05/20 11:30:24;;;;;;;3.72;1.67;;;;;;;;;;5053214;28;20399;-77
2022/05/20 11:33:28;;;;;;;1.55;1.38;;;;;;;;;;5053792;28;20024;-78
2022/05/20 11:36:25;;;;;;;5.32;1.60;;;;;;;;;;5053313;28;20040;-77
2022/05/20 11:39:12;;;;;;;2.13;1.42;;;;;;;;;;5071040;28;20124;-78
2022/05/20 11:42:11;;;;;;;2.63;1.60;;;;;;;;;;5071396;28;20036;-76
2022/05/20 11:44:46;;;;;;;2.85;1.70;;;;;;;;;;5071615;28;20095;-76
2022/05/20 11:47:41;;;;;;;3.00;1.77;;;;;;;;;;5071401;28;20099;-77
2022/05/20 11:50:27;;;;;;;3.33;1.83;;;;;;;;;;5053248;28;20410;-76
2022/05/20 11:53:01;;;;;;;4.70;1.83;;;;;;;;;;5071299;28;20020;-76
2022/05/20 11:55:42;;;;;;;4.63;1.77;;;;;;;;;;5053799;28;20032;-76
2022/05/20 11:58:14;;;;;;;7.30;2.45;;;;;;;;;;5053466;28;20149;-76
2022/05/20 12:00:42;;;;;;;4.10;1.90;;;;;;;;;;5053964;28;20108;-77
2022/05/20 12:03:15;;;;;;;3.63;1.95;;;;;;;;;;5053479;28;20508;-77
2022/05/20 12:05:43;;;;;;;6.50;1.98;;;;;;;;;;5055527;28;20039;-78
2022/05/20 12:08:37;;;;;;;3.15;1.67;;;;;;;;;;5040523;28;20044;-77
2022/05/20 12:11:23;;;;;;;3.70;1.80;;;;;;;;;;5075112;28;20356;-77
2022/05/20 12:14:19;;;;;;;6.82;1.83;;;;;;;;;;5074986;28;20489;-77
2022/05/20 12:17:01;;;;;;;6.30;2.17;;;;;;;;;;5058022;28;20040;-76
2022/05/20 12:25:33;;;;;;;3.95;1.85;;;;;;;;;;5059920;28;20035;-77
2022/05/20 12:28:10;;;;;;;6.70;2.75;;;;;;;;;;5057125;28;20028;-77
2022/05/20 12:30:42;;;;;;;16.83;4.47;;;;;;;;;;5056436;28;20134;-77
2022/05/20 12:33:56;;;;;;;13.05;3.80;;;;;;;;;;5057126;28;20093;-76
2022/05/20 12:36:27;;;;;;;10.77;4.13;;;;;;;;;;5051640;28;20036;-77
2022/05/20 12:39:13;;;;;;;11.55;3.58;;;;;;;;;;5065746;28;20049;-78
2022/05/20 12:41:59;;;;;;;16.92;5.35;;;;;;;;;;5054492;28;20512;-79
2022/05/20 12:44:25;;;;;;;22.55;6.45;;;;;;;;;;5036828;28;20024;-78
2022/05/20 12:47:09;;;;;;;13.93;4.60;;;;;;;;;;5036681;28;20036;-78
2022/05/20 12:49:38;;;;;;;15.80;4.60;;;;;;;;;;5054855;28;20043;-78
2022/05/20 12:52:31;;;;;;;14.27;3.60;;;;;;;;;;5054514;28;20391;-76
2022/05/20 12:55:37;;;;;;;9.55;4.13;;;;;;;;;;5020102;28;20052;-76
2022/05/20 12:58:05;;;;;;;8.60;3.60;;;;;;;;;;4957521;28;20113;-77
2022/05/20 13:00:40;;;;;;;8.55;3.13;;;;;;;;;;4957418;28;20058;-78
2022/05/20 13:03:10;;;;;;;6.93;3.90;;;;;;;;;;4957528;28;20181;-77
2022/05/20 13:05:39;;;;;;;8.43;3.28;;;;;;;;;;4957266;28;20039;-76
2022/05/20 13:08:11;;;;;;;8.38;2.92;;;;;;;;;;4957424;28;20069;-76
2022/05/20 13:10:39;;;;;;;7.78;2.58;;;;;;;;;;4957616;28;20046;-77
2022/05/20 13:13:08;;;;;;;3.78;2.50;;;;;;;;;;4941279;28;20054;-77
2022/05/20 13:15:47;;;;;;;6.13;2.42;;;;;;;;;;4956968;28;20486;-77
2022/05/20 13:18:32;;;;;;;3.80;2.40;;;;;;;;;;4956566;28;20516;-77
2022/05/20 13:21:01;;;;;;;6.82;2.50;;;;;;;;;;4973204;28;20042;-77
2022/05/20 13:23:29;;;;;;;3.30;2.60;;;;;;;;;;4957245;28;20493;-76
2022/05/20 13:25:55;;;;;;;6.45;2.42;;;;;;;;;;4940900;28;20031;-77
2022/05/20 13:28:30;;;;;;;7.22;2.55;;;;;;;;;;4983152;28;20329;-77
2022/05/20 13:31:05;;;;;;;7.43;2.92;;;;;;;;;;5036133;28;20087;-77
2022/05/20 13:33:32;;;;;;;2.92;2.35;;;;;;;;;;5035852;28;20021;-77
2022/05/20 13:35:59;;;;;;;3.55;2.35;;;;;;;;;;5036027;28;20098;-77
2022/05/20 13:38:31;;;;;;;5.32;2.63;;;;;;;;;;5030759;28;20053;-77
2022/05/20 13:40:57;;;;;;;5.85;2.50;;;;;;;;;;5016326;28;20025;-77
2022/05/20 13:43:26;;;;;;;4.05;2.70;;;;;;;;;;5015972;28;20541;-77
2022/05/20 13:51:30;;;;;;;5.55;2.95;;;;;;;;;;5018736;28;20099;-77
2022/05/20 13:53:58;;;;;;;5.78;2.92;;;;;;;;;;5015825;28;20068;-77
2022/05/20 13:56:36;;;;;;;7.22;3.17;;;;;;;;;;5015754;28;20021;-77
2022/05/20 13:59:04;;;;;;;4.68;2.83;;;;;;;;;;5015866;28;20017;-77
2022/05/20 14:01:30;;;;;;;5.63;3.13;;;;;;;;;;4999255;28;20026;-77
2022/05/20 14:03:58;;;;;;;6.60;2.97;;;;;;;;;;4982844;28;20029;-78
2022/05/20 14:06:27;;;;;;;4.72;2.78;;;;;;;;;;5033682;28;20037;-78
2022/05/20 14:08:56;;;;;;;5.70;2.60;;;;;;;;;;5015636;28;20029;-77
2022/05/20 14:11:42;;;;;;;8.20;3.13;;;;;;;;;;5015538;28;20033;-77
2022/05/20 14:14:19;;;;;;;6.13;2.80;;;;;;;;;;5015306;28;20025;-77
2022/05/20 14:16:51;;;;;;;2.75;2.40;;;;;;;;;;4999207;28;20059;-80
2022/05/20 14:19:27;;;;;;;5.45;2.83;;;;;;;;;;5000104;28;20026;-80
2022/05/20 14:21:59;;;;;;;4.50;2.65;;;;;;;;;;5000099;28;20026;-79
2022/05/20 14:24:25;;;;;;;3.78;2.17;;;;;;;;;;5032898;28;20021;-80
2022/05/20 14:26:53;;;;;;;4.40;2.42;;;;;;;;;;5015553;28;20167;-80
2022/05/20 14:29:21;;;;;;;3.30;2.50;;;;;;;;;;5032913;28;20026;-81
2022/05/20 14:31:56;;;;;;;3.67;2.22;;;;;;;;;;5015533;28;20021;-80
2022/05/20 14:34:47;;;;;;;4.03;2.47;;;;;;;;;;4998736;28;20075;-80
2022/05/20 14:37:24;;;;;;;3.65;2.28;;;;;;;;;;4998795;28;20515;-80
2022/05/20 14:40:11;;;;;;;3.47;2.20;;;;;;;;;;5044544;28;20068;-81
2022/05/20 14:42:40;;;;;;;3.25;2.33;;;;;;;;;;5052793;28;20029;-78
2022/05/20 14:45:36;;;;;;;5.20;2.47;;;;;;;;;;5051701;28;20025;-79
2022/05/20 14:48:51;;;;;;;6.35;2.42;;;;;;;;;;5051665;28;20028;-78
2022/05/20 14:51:25;;;;;;;4.25;2.97;;;;;;;;;;5049085;28;20059;-78
2022/05/20 14:53:51;;;;;;;4.47;3.10;;;;;;;;;;5051666;28;20440;-80
2022/05/20 14:56:50;;;;;;;5.75;2.83;;;;;;;;;;5035504;28;20029;-79
2022/05/20 14:59:29;;;;;;;4.18;2.55;;;;;;;;;;5009702;28;20479;-79
2022/05/20 15:01:56;;;;;;;4.47;2.97;;;;;;;;;;5034842;28;20044;-78
2022/05/20 15:04:22;;;;;;;4.85;3.00;;;;;;;;;;5034299;28;20033;-78
2022/05/20 15:06:47;;;;;;;4.57;3.00;;;;;;;;;;5052497;28;20044;-78
2022/05/20 15:09:20;;;;;;;4.63;2.63;;;;;;;;;;5050713;28;20433;-77
2022/05/20 15:11:46;;;;;;;4.80;2.90;;;;;;;;;;5034116;28;20028;-77
2022/05/20 15:14:11;;;;;;;5.95;2.60;;;;;;;;;;5050784;28;20255;-78
2022/05/20 15:16:36;;;;;;;3.63;2.67;;;;;;;;;;5050504;28;20407;-78
2022/05/20 15:19:02;;;;;;;4.63;2.88;;;;;;;;;;5052047;28;20025;-78
2022/05/20 15:21:30;;;;;;;4.20;2.78;;;;;;;;;;5050644;28;20025;-77
2022/05/20 15:24:08;;;;;;;8.05;2.40;;;;;;;;;;5051507;28;20029;-77
2022/05/20 15:26:36;;;;;;;4.25;2.58;;;;;;;;;;5033437;28;20033;-78
2022/05/20 15:29:02;;;;;;;4.57;2.47;;;;;;;;;;5033166;28;20056;-78
2022/05/20 15:37:18;;;;;;;8.32;2.30;;;;;;;;;;5050358;28;20091;-76
2022/05/20 15:40:04;;;;;;;3.47;2.03;;;;;;;;;;5033499;28;20052;-76
2022/05/20 15:42:30;;;;;;;3.67;2.55;;;;;;;;;;5054040;28;20061;-75
2022/05/20 15:44:56;;;;;;;4.00;2.53;;;;;;;;;;5054192;28;20020;-76
2022/05/20 15:47:23;;;;;;;4.40;2.28;;;;;;;;;;5055220;28;20060;-76
2022/05/20 15:49:49;;;;;;;3.10;2.40;;;;;;;;;;5053476;28;20468;-76
2022/05/20 15:52:18;;;;;;;4.82;2.33;;;;;;;;;;5053677;28;20028;-77
2022/05/20 15:54:56;;;;;;;5.18;2.63;;;;;;;;;;5054905;28;20040;-76
2022/05/20 15:57:23;;;;;;;4.38;2.15;;;;;;;;;;5054068;28;20457;-76